createdAt,value
2022-12-22T05:00:29.188Z,10.48
2022-12-22T05:01:29.298Z,10.38
2022-12-22T05:02:29.252Z,10.41
2022-12-22T05:03:29.183Z,10.42
2022-12-22T05:04:29.113Z,10.40
2022-12-22T05:05:29.082Z,10.47
2022-12-22T05:06:29.063Z,10.40
2022-12-22T05:07:29.053Z,10.38
2022-12-22T05:08:29.042Z,10.41
2022-12-22T05:09:29.043Z,10.42
2022-12-22T05:10:29.020Z,10.42
2022-12-22T05:11:34.025Z,10.47
2022-12-22T05:12:28.998Z,10.44
2022-12-22T05:13:28.982Z,10.40
2022-12-22T05:14:28.986Z,10.41
2022-12-22T05:15:28.955Z,10.42
2022-12-22T05:16:29.041Z,10.41
2022-12-22T05:17:28.944Z,10.42
2022-12-22T05:18:28.927Z,10.42
2022-12-22T05:19:30.845Z,10.44
2022-12-22T05:20:28.908Z,10.38
2022-12-22T05:21:28.891Z,10.36
2022-12-22T05:22:33.918Z,10.34
2022-12-22T05:23:28.877Z,10.38
2022-12-22T05:24:28.871Z,10.44
2022-12-22T05:25:34.659Z,10.48
2022-12-22T05:26:29.859Z,10.48
2022-12-22T05:27:28.829Z,10.55
2022-12-22T05:28:28.819Z,10.53
2022-12-22T05:29:28.837Z,10.55
2022-12-22T05:30:28.873Z,10.52
2022-12-22T05:31:28.931Z,10.52
2022-12-22T05:32:28.787Z,10.53
2022-12-22T05:33:33.786Z,10.52
2022-12-22T05:34:28.740Z,10.55
2022-12-22T05:35:28.750Z,10.52
2022-12-22T05:36:28.722Z,10.51
2022-12-22T05:37:28.719Z,10.53
2022-12-22T05:38:28.704Z,10.52
2022-12-22T05:39:28.716Z,10.52
2022-12-22T05:40:28.729Z,10.53
2022-12-22T05:41:28.675Z,10.55
2022-12-22T05:42:28.666Z,10.56
2022-12-22T05:43:28.645Z,10.56
2022-12-22T05:44:33.656Z,10.56
2022-12-22T05:45:28.631Z,10.55
2022-12-22T05:46:28.688Z,10.59
2022-12-22T05:47:28.604Z,10.52
2022-12-22T05:48:35.399Z,10.56
2022-12-22T05:49:29.574Z,10.55
2022-12-22T05:50:29.570Z,10.53
2022-12-22T05:51:28.552Z,10.64
2022-12-22T05:52:28.550Z,10.61
2022-12-22T05:53:28.542Z,10.60
2022-12-22T05:54:28.520Z,10.63
2022-12-22T05:55:33.548Z,10.71
2022-12-22T05:56:29.497Z,10.66
2022-12-22T05:57:28.483Z,10.63
2022-12-22T05:58:28.476Z,10.70
2022-12-22T05:59:28.468Z,10.68
2022-12-22T06:00:28.479Z,10.67
2022-12-22T06:01:28.468Z,10.67
2022-12-22T06:02:28.625Z,10.79
2022-12-22T06:03:28.644Z,10.70
2022-12-22T06:04:28.549Z,10.66
2022-12-22T06:05:28.405Z,10.71
2022-12-22T06:06:33.402Z,10.76
2022-12-22T06:07:28.386Z,10.71
2022-12-22T06:08:28.361Z,10.78
2022-12-22T06:09:28.362Z,10.71
2022-12-22T06:10:28.341Z,10.84
2022-12-22T06:11:28.324Z,10.81
2022-12-22T06:12:28.321Z,10.86
2022-12-22T06:13:28.311Z,10.82
2022-12-22T06:14:28.288Z,10.85
2022-12-22T06:15:28.294Z,10.85
2022-12-22T06:16:28.339Z,10.86
2022-12-22T06:17:34.913Z,10.88
2022-12-22T06:18:28.302Z,10.85
2022-12-22T06:19:28.232Z,10.88
2022-12-22T06:20:28.250Z,10.92
2022-12-22T06:21:28.220Z,10.85
2022-12-22T06:22:28.198Z,10.86
2022-12-22T06:23:28.195Z,10.86
2022-12-22T06:24:28.180Z,10.92
2022-12-22T06:25:28.192Z,10.92
2022-12-22T06:26:28.166Z,10.94
2022-12-22T06:27:28.152Z,10.89
2022-12-22T06:28:33.171Z,10.89
2022-12-22T06:29:28.139Z,10.85
2022-12-22T06:30:33.194Z,10.89
2022-12-22T06:31:29.210Z,10.88
2022-12-22T06:32:28.107Z,10.85
2022-12-22T06:33:28.070Z,10.86
2022-12-22T06:34:28.063Z,10.88
2022-12-22T06:35:28.074Z,10.84
2022-12-22T06:36:28.260Z,10.71
2022-12-22T06:37:28.046Z,10.76
2022-12-22T06:38:28.112Z,10.78
2022-12-22T06:39:33.046Z,10.70
2022-12-22T06:40:27.997Z,10.78
2022-12-22T06:41:28.027Z,10.76
2022-12-22T06:42:27.971Z,10.73
2022-12-22T06:43:27.988Z,10.71
2022-12-22T06:44:27.945Z,10.78
2022-12-22T06:45:27.935Z,10.78
2022-12-22T06:46:28.011Z,10.79
2022-12-22T06:47:27.916Z,10.82
2022-12-22T06:48:27.901Z,10.84
2022-12-22T06:49:27.908Z,10.85
2022-12-22T06:50:32.899Z,10.84
2022-12-22T06:51:27.895Z,10.78
2022-12-22T06:52:27.904Z,10.76
2022-12-22T06:53:27.845Z,10.86
2022-12-22T06:54:27.846Z,10.82
2022-12-22T06:55:27.848Z,10.82
2022-12-22T06:56:27.821Z,10.85
2022-12-22T06:57:28.844Z,10.86
2022-12-22T06:58:27.790Z,10.82
2022-12-22T06:59:27.803Z,10.85
2022-12-22T07:00:27.803Z,10.86
2022-12-22T07:01:32.949Z,10.84
2022-12-22T07:02:27.973Z,10.84
2022-12-22T07:03:27.949Z,10.78
2022-12-22T07:04:27.722Z,10.81
2022-12-22T07:05:27.746Z,10.84
2022-12-22T07:06:27.710Z,10.76
2022-12-22T07:07:27.689Z,10.81
2022-12-22T07:08:27.701Z,10.76
2022-12-22T07:09:27.747Z,10.84
2022-12-22T07:10:27.735Z,10.81
2022-12-22T07:11:27.662Z,10.82
2022-12-22T07:12:32.652Z,10.92
2022-12-22T07:13:27.616Z,10.96
2022-12-22T07:14:27.616Z,10.96
2022-12-22T07:15:27.609Z,11.02
2022-12-22T07:16:27.652Z,11.25
2022-12-22T07:17:27.584Z,11.21
2022-12-22T07:18:27.638Z,11.15
2022-12-22T07:19:27.654Z,11.14
2022-12-22T07:20:27.548Z,11.17
2022-12-22T07:21:27.670Z,11.02
2022-12-22T07:22:30.466Z,10.97
2022-12-22T07:23:32.553Z,10.97
2022-12-22T07:24:27.507Z,11.03
2022-12-22T07:25:27.485Z,10.97
2022-12-22T07:26:27.855Z,11.03
2022-12-22T07:27:27.465Z,10.99
2022-12-22T07:28:27.457Z,10.91
2022-12-22T07:29:27.434Z,10.89
2022-12-22T07:30:27.491Z,10.91
2022-12-22T07:31:27.538Z,10.91
2022-12-22T07:32:27.451Z,10.94
2022-12-22T07:33:27.405Z,10.91
2022-12-22T07:34:32.407Z,10.92
2022-12-22T07:35:27.367Z,10.97
2022-12-22T07:36:28.368Z,10.99
2022-12-22T07:37:27.343Z,10.96
2022-12-22T07:38:27.344Z,10.94
2022-12-22T07:39:27.385Z,10.96
2022-12-22T07:40:28.171Z,10.91
2022-12-22T07:41:27.346Z,11.00
2022-12-22T07:42:27.285Z,10.94
2022-12-22T07:43:27.294Z,11.06
2022-12-22T07:44:27.265Z,10.94
2022-12-22T07:45:32.283Z,11.02
2022-12-22T07:46:27.558Z,10.94
2022-12-22T07:47:34.839Z,10.94
2022-12-22T07:48:28.227Z,10.99
2022-12-22T07:49:27.210Z,11.03
2022-12-22T07:50:27.283Z,11.04
2022-12-22T07:51:27.195Z,11.02
2022-12-22T07:52:27.186Z,11.10
2022-12-22T07:53:27.168Z,11.06
2022-12-22T07:54:27.163Z,11.17
2022-12-22T07:55:27.162Z,11.06
2022-12-22T07:56:32.165Z,11.07
2022-12-22T07:57:27.134Z,11.15
2022-12-22T07:58:27.105Z,11.10
2022-12-22T07:59:27.107Z,11.14
2022-12-22T08:00:27.082Z,11.14
2022-12-22T08:01:27.248Z,11.19
2022-12-22T08:02:27.144Z,11.21
2022-12-22T08:03:27.143Z,11.27
2022-12-22T08:04:27.108Z,11.22
2022-12-22T08:05:27.045Z,11.22
2022-12-22T08:06:27.031Z,11.33
2022-12-22T08:07:32.031Z,11.27
2022-12-22T08:08:26.987Z,11.29
2022-12-22T08:09:26.973Z,11.35
2022-12-22T08:10:26.980Z,11.25
2022-12-22T08:11:26.999Z,11.29
2022-12-22T08:12:27.037Z,11.35
2022-12-22T08:13:26.981Z,11.27
2022-12-22T08:14:26.921Z,11.36
2022-12-22T08:15:26.917Z,11.37
2022-12-22T08:16:26.975Z,11.39
2022-12-22T08:17:26.898Z,11.52
2022-12-22T08:18:31.920Z,11.44
2022-12-22T08:19:26.879Z,11.69
2022-12-22T08:20:26.943Z,11.62
2022-12-22T08:21:26.888Z,11.52
2022-12-22T08:22:26.847Z,11.52
2022-12-22T08:23:26.820Z,11.62
2022-12-22T08:24:26.822Z,11.54
2022-12-22T08:25:26.805Z,11.57
2022-12-22T08:26:27.794Z,11.49
2022-12-22T08:27:26.832Z,11.54
2022-12-22T08:28:26.776Z,11.51
2022-12-22T08:29:31.853Z,11.46
2022-12-22T08:30:26.740Z,11.46
2022-12-22T08:31:26.772Z,11.57
2022-12-22T08:32:27.726Z,11.67
2022-12-22T08:33:26.703Z,11.58
2022-12-22T08:34:26.742Z,11.64
2022-12-22T08:35:26.683Z,11.62
2022-12-22T08:36:26.705Z,11.65
2022-12-22T08:37:26.669Z,11.60
2022-12-22T08:38:26.652Z,11.60
2022-12-22T08:39:26.659Z,11.58
2022-12-22T08:40:31.714Z,11.65
2022-12-22T08:41:26.618Z,11.64
2022-12-22T08:42:26.649Z,11.67
2022-12-22T08:43:27.630Z,11.67
2022-12-22T08:44:26.581Z,11.58
2022-12-22T08:45:26.577Z,11.65
2022-12-22T08:46:26.631Z,11.67
2022-12-22T08:47:26.634Z,11.80
2022-12-22T08:48:26.556Z,11.79
2022-12-22T08:49:26.544Z,11.78
2022-12-22T08:50:26.515Z,11.78
2022-12-22T08:51:31.524Z,11.73
2022-12-22T08:52:27.507Z,11.79
2022-12-22T08:54:02.592Z,11.78
2022-12-22T08:54:27.472Z,11.76
2022-12-22T08:55:26.463Z,11.78
2022-12-22T08:56:26.470Z,11.73
2022-12-22T08:57:26.474Z,11.76
2022-12-22T08:58:26.447Z,11.82
2022-12-22T08:59:26.440Z,11.72
2022-12-22T09:00:26.403Z,11.78
2022-12-22T09:01:26.570Z,11.72
2022-12-22T09:02:31.491Z,11.69
2022-12-22T09:03:26.488Z,11.72
2022-12-22T09:04:26.360Z,11.73
2022-12-22T09:05:26.380Z,11.78
2022-12-22T09:06:27.621Z,11.78
2022-12-22T09:07:26.343Z,11.82
2022-12-22T09:08:26.320Z,11.86
2022-12-22T09:09:26.297Z,11.90
2022-12-22T09:10:26.303Z,11.91
2022-12-22T09:11:26.276Z,11.86
2022-12-22T09:12:26.299Z,11.94
2022-12-22T09:13:31.269Z,11.95
2022-12-22T09:14:26.240Z,11.90
2022-12-22T09:15:26.258Z,11.88
2022-12-22T09:16:26.292Z,11.94
2022-12-22T09:17:26.241Z,11.95
2022-12-22T09:18:26.228Z,11.90
2022-12-22T09:19:26.180Z,11.85
2022-12-22T09:20:26.173Z,11.86
2022-12-22T09:21:26.191Z,11.96
2022-12-22T09:22:28.567Z,11.83
2022-12-22T09:23:26.163Z,11.91
2022-12-22T09:24:31.210Z,11.95
2022-12-22T09:25:26.114Z,11.94
2022-12-22T09:26:26.118Z,11.85
2022-12-22T09:27:26.120Z,11.95
2022-12-22T09:28:26.090Z,11.86
2022-12-22T09:29:26.072Z,11.96
2022-12-22T09:30:26.080Z,11.80
2022-12-22T09:31:26.135Z,11.76
2022-12-22T09:32:26.035Z,11.85
2022-12-22T09:33:26.033Z,11.91
2022-12-22T09:34:26.022Z,11.79
2022-12-22T09:35:31.044Z,11.83
2022-12-22T09:36:26.000Z,11.76
2022-12-22T09:37:26.038Z,11.69
2022-12-22T09:38:25.987Z,11.78
2022-12-22T09:39:29.294Z,11.70
2022-12-22T09:40:25.970Z,11.72
2022-12-22T09:41:25.957Z,11.72
2022-12-22T09:42:25.940Z,11.62
2022-12-22T09:43:25.933Z,11.58
2022-12-22T09:44:25.910Z,11.70
2022-12-22T09:45:25.886Z,11.58
2022-12-22T09:46:31.058Z,11.57
2022-12-22T09:47:25.866Z,11.61
2022-12-22T09:48:25.867Z,11.54
2022-12-22T09:49:25.840Z,11.49
2022-12-22T09:50:25.835Z,11.47
2022-12-22T09:51:27.447Z,11.49
2022-12-22T09:52:25.840Z,11.47
2022-12-22T09:53:25.807Z,11.51
2022-12-22T09:54:25.792Z,11.51
2022-12-22T09:55:25.779Z,11.36
2022-12-22T09:56:25.777Z,11.39
2022-12-22T09:57:30.777Z,11.43
2022-12-22T09:58:26.646Z,11.36
2022-12-22T09:59:25.738Z,11.36
2022-12-22T10:00:26.720Z,11.37
2022-12-22T10:01:25.889Z,11.37
2022-12-22T10:02:25.799Z,11.40
2022-12-22T10:03:25.789Z,11.42
2022-12-22T10:04:25.710Z,11.40
2022-12-22T10:05:25.660Z,11.40
2022-12-22T10:06:26.647Z,11.42
2022-12-22T10:07:25.653Z,11.39
2022-12-22T10:08:30.815Z,11.39
2022-12-22T10:09:52.099Z,11.43
2022-12-22T10:10:26.602Z,11.46
2022-12-22T10:11:25.591Z,11.49
2022-12-22T10:12:25.602Z,11.55
2022-12-22T10:13:25.593Z,11.58
2022-12-22T10:14:25.557Z,11.55
2022-12-22T10:15:25.589Z,11.62
2022-12-22T10:16:25.598Z,11.62
2022-12-22T10:17:25.541Z,11.73
2022-12-22T10:18:25.546Z,11.76
2022-12-22T10:19:30.527Z,11.72
2022-12-22T10:20:25.630Z,11.67
2022-12-22T10:21:25.482Z,11.76
2022-12-22T10:22:25.473Z,11.79
2022-12-22T10:23:25.469Z,11.72
2022-12-22T10:24:25.458Z,11.91
2022-12-22T10:25:25.438Z,11.80
2022-12-22T10:26:28.460Z,11.91
2022-12-22T10:27:28.987Z,11.95
2022-12-22T10:28:25.485Z,12.05
2022-12-22T10:29:25.392Z,12.07
2022-12-22T10:30:30.402Z,11.95
2022-12-22T10:31:25.419Z,12.02
2022-12-22T10:32:25.432Z,12.02
2022-12-22T10:33:25.340Z,12.10
2022-12-22T10:34:25.361Z,12.10
2022-12-22T10:35:25.343Z,12.12
2022-12-22T10:36:25.336Z,12.10
2022-12-22T10:37:25.319Z,12.04
2022-12-22T10:38:25.293Z,12.02
2022-12-22T10:39:25.282Z,11.96
2022-12-22T10:40:25.276Z,11.99
2022-12-22T10:41:30.291Z,12.12
2022-12-22T10:42:25.246Z,12.23
2022-12-22T10:43:25.225Z,12.23
2022-12-22T10:44:25.290Z,12.27
2022-12-22T10:45:25.221Z,12.31
2022-12-22T10:46:25.285Z,12.29
2022-12-22T10:47:25.181Z,12.37
2022-12-22T10:48:25.187Z,12.23
2022-12-22T10:49:25.208Z,12.27
2022-12-22T10:50:25.187Z,12.28
2022-12-22T10:51:25.162Z,12.20
2022-12-22T10:52:32.317Z,12.27
2022-12-22T10:53:25.123Z,12.27
2022-12-22T10:54:25.125Z,12.21
2022-12-22T10:55:25.094Z,12.32
2022-12-22T10:56:25.080Z,12.27
2022-12-22T10:57:26.083Z,12.37
2022-12-22T10:58:25.064Z,12.24
2022-12-22T10:59:25.056Z,12.24
2022-12-22T11:00:25.061Z,12.23
2022-12-22T11:01:25.255Z,12.32
2022-12-22T11:02:25.223Z,12.24
2022-12-22T11:03:30.325Z,12.24
2022-12-22T11:04:25.037Z,12.37
2022-12-22T11:05:24.989Z,12.31
2022-12-22T11:06:25.050Z,12.27
2022-12-22T11:07:24.967Z,12.31
2022-12-22T11:08:24.949Z,12.32
2022-12-22T11:09:33.807Z,12.35
2022-12-22T11:10:25.921Z,12.35
2022-12-22T11:11:24.913Z,12.35
2022-12-22T11:12:24.902Z,12.35
2022-12-22T11:13:24.887Z,12.37
2022-12-22T11:14:29.934Z,12.41
2022-12-22T11:15:25.182Z,12.27
2022-12-22T11:16:24.921Z,12.34
2022-12-22T11:17:24.841Z,12.27
2022-12-22T11:18:24.836Z,12.35
2022-12-22T11:19:24.827Z,12.21
2022-12-22T11:20:24.822Z,12.23
2022-12-22T11:21:24.876Z,12.37
2022-12-22T11:22:24.825Z,12.29
2022-12-22T11:23:24.790Z,12.24
2022-12-22T11:24:24.761Z,12.24
2022-12-22T11:25:29.781Z,12.27
2022-12-22T11:26:24.739Z,12.24
2022-12-22T11:27:24.740Z,12.23
2022-12-22T11:28:24.730Z,12.23
2022-12-22T11:29:24.714Z,12.29
2022-12-22T11:30:24.729Z,12.24
2022-12-22T11:31:24.768Z,12.27
2022-12-22T11:32:24.681Z,12.28
2022-12-22T11:33:24.661Z,12.23
2022-12-22T11:34:24.662Z,12.12
2022-12-22T11:35:24.650Z,12.12
2022-12-22T11:36:29.804Z,12.13
2022-12-22T11:37:24.626Z,12.13
2022-12-22T11:38:24.624Z,12.12
2022-12-22T11:39:24.609Z,12.13
2022-12-22T11:40:24.594Z,12.09
2022-12-22T11:41:24.584Z,12.13
2022-12-22T11:42:24.563Z,12.19
2022-12-22T11:43:24.549Z,12.13
2022-12-22T11:44:24.539Z,12.21
2022-12-22T11:45:24.528Z,12.13
2022-12-22T11:46:24.618Z,12.12
2022-12-22T11:47:29.528Z,12.10
2022-12-22T11:48:24.501Z,12.09
2022-12-22T11:49:24.484Z,12.14
2022-12-22T11:51:01.162Z,12.12
2022-12-22T11:51:27.463Z,12.14
2022-12-22T11:52:24.449Z,12.14
2022-12-22T11:53:24.431Z,12.16
2022-12-22T11:54:24.462Z,12.12
2022-12-22T11:55:24.466Z,12.12
2022-12-22T11:56:24.429Z,12.10
2022-12-22T11:57:24.481Z,12.09
2022-12-22T11:58:29.405Z,12.12
2022-12-22T11:59:24.372Z,12.13
2022-12-22T12:00:32.717Z,12.23
2022-12-22T12:01:26.376Z,12.13
2022-12-22T12:02:24.567Z,12.19
2022-12-22T12:03:24.574Z,12.13
2022-12-22T12:04:24.369Z,12.14
2022-12-22T12:05:24.324Z,12.13
2022-12-22T12:06:24.328Z,12.14
2022-12-22T12:07:26.197Z,12.13
2022-12-22T12:08:24.284Z,12.10
2022-12-22T12:09:29.309Z,12.13
2022-12-22T12:10:24.249Z,12.13
2022-12-22T12:11:24.397Z,12.02
2022-12-22T12:12:24.223Z,12.13
2022-12-22T12:13:30.088Z,11.91
2022-12-22T12:14:25.259Z,12.14
2022-12-22T12:15:24.186Z,12.10
2022-12-22T12:16:24.316Z,12.14
2022-12-22T12:17:24.162Z,12.17
2022-12-22T12:18:24.151Z,12.10
2022-12-22T12:19:27.160Z,12.17
2022-12-22T12:20:29.153Z,12.13
2022-12-22T12:21:24.125Z,12.13
2022-12-22T12:22:24.117Z,12.14
2022-12-22T12:23:24.098Z,12.14
2022-12-22T12:24:24.088Z,12.14
2022-12-22T12:25:26.232Z,12.12
2022-12-22T12:26:24.079Z,12.10
2022-12-22T12:27:24.071Z,12.17
2022-12-22T12:28:24.044Z,12.07
2022-12-22T12:29:24.057Z,12.20
2022-12-22T12:30:39.890Z,12.23
2022-12-22T12:31:30.141Z,12.32
2022-12-22T12:32:24.017Z,12.28
2022-12-22T12:33:24.001Z,12.27
2022-12-22T12:34:24.131Z,12.28
2022-12-22T12:35:23.974Z,12.24
2022-12-22T12:36:23.955Z,12.27
2022-12-22T12:37:26.735Z,12.24
2022-12-22T12:38:56.875Z,12.27
2022-12-22T12:39:24.920Z,12.19
2022-12-22T12:40:23.897Z,12.21
2022-12-22T12:41:23.918Z,12.24
2022-12-22T12:42:28.945Z,12.28
2022-12-22T12:43:23.867Z,12.24
2022-12-22T12:44:23.858Z,12.24
2022-12-22T12:45:23.853Z,12.28
2022-12-22T12:46:23.921Z,12.29
2022-12-22T12:47:23.841Z,12.27
2022-12-22T12:48:23.835Z,12.19
2022-12-22T12:49:26.527Z,12.17
2022-12-22T12:50:23.798Z,12.23
2022-12-22T12:51:23.781Z,12.16
2022-12-22T12:52:23.770Z,12.27
2022-12-22T12:53:28.795Z,12.21
2022-12-22T12:54:23.786Z,12.13
2022-12-22T12:55:29.747Z,12.14
2022-12-22T12:56:24.718Z,12.13
2022-12-22T12:57:23.732Z,12.10
2022-12-22T12:58:23.937Z,12.10
2022-12-22T12:59:23.741Z,12.13
2022-12-22T13:00:23.674Z,12.12
2022-12-22T13:01:23.719Z,12.23
2022-12-22T13:02:23.938Z,12.23
2022-12-22T13:03:52.965Z,12.24
2022-12-22T13:04:29.777Z,12.09
2022-12-22T13:05:23.623Z,12.17
2022-12-22T13:06:23.603Z,12.10
2022-12-22T13:07:23.597Z,12.23
2022-12-22T13:08:23.602Z,12.16
2022-12-22T13:10:24.568Z,12.21
2022-12-22T13:11:52.617Z,12.12
2022-12-22T13:12:24.973Z,12.23
2022-12-22T13:13:23.576Z,12.27
2022-12-22T13:14:23.615Z,12.29
2022-12-22T13:15:28.527Z,12.46
2022-12-22T13:16:23.659Z,12.60
2022-12-22T13:17:23.560Z,12.93
2022-12-22T13:18:23.484Z,12.87
2022-12-22T13:19:23.483Z,12.85
2022-12-22T13:20:23.448Z,12.74
2022-12-22T13:21:54.376Z,12.65
2022-12-22T13:22:24.432Z,12.47
2022-12-22T13:23:23.439Z,12.45
2022-12-22T13:24:25.912Z,12.41
2022-12-22T13:25:23.398Z,12.39
2022-12-22T13:26:28.677Z,12.39
2022-12-22T13:27:23.377Z,12.38
2022-12-22T13:28:23.377Z,12.39
2022-12-22T13:29:23.390Z,12.46
2022-12-22T13:30:23.337Z,12.46
2022-12-22T13:31:23.394Z,12.46
2022-12-22T13:32:23.364Z,12.42
2022-12-22T13:33:23.303Z,12.52
2022-12-22T13:34:23.311Z,12.47
2022-12-22T13:35:33.835Z,12.49
2022-12-22T13:36:24.265Z,12.47
2022-12-22T13:37:28.288Z,12.54
2022-12-22T13:38:23.243Z,12.57
2022-12-22T13:39:23.246Z,12.72
2022-12-22T13:40:23.236Z,12.64
2022-12-22T13:41:27.448Z,12.70
2022-12-22T13:42:23.253Z,12.85
2022-12-22T13:43:23.238Z,12.74
2022-12-22T13:44:23.185Z,12.74
2022-12-22T13:45:23.187Z,12.79
2022-12-22T13:46:23.244Z,12.87
2022-12-22T13:47:24.143Z,12.85
2022-12-22T13:48:28.157Z,12.92
2022-12-22T13:49:51.572Z,12.85
2022-12-22T13:50:24.115Z,12.90
2022-12-22T13:51:23.101Z,12.90
2022-12-22T13:52:23.083Z,12.92
2022-12-22T13:53:49.940Z,12.85
2022-12-22T13:54:24.123Z,12.87
2022-12-22T13:55:23.059Z,12.93
2022-12-22T13:56:23.048Z,12.93
2022-12-22T13:57:23.054Z,12.89
2022-12-22T13:58:23.025Z,12.89
2022-12-22T13:59:28.066Z,12.89
2022-12-22T14:00:22.998Z,12.90
2022-12-22T14:01:23.071Z,12.85
2022-12-22T14:02:23.203Z,12.85
2022-12-22T14:03:57.696Z,12.74
2022-12-22T14:04:24.026Z,12.74
2022-12-22T14:05:22.997Z,12.79
2022-12-22T14:06:22.928Z,12.86
2022-12-22T14:07:22.924Z,12.71
2022-12-22T14:08:22.913Z,12.70
2022-12-22T14:09:22.917Z,12.77
2022-12-22T14:10:27.921Z,12.74
2022-12-22T14:11:22.865Z,12.72
2022-12-22T14:12:22.912Z,12.68
2022-12-22T14:13:22.848Z,12.71
2022-12-22T14:14:22.830Z,12.68
2022-12-22T14:15:22.865Z,12.70
2022-12-22T14:16:22.869Z,12.72
2022-12-22T14:17:22.851Z,12.72
2022-12-22T14:18:22.790Z,12.65
2022-12-22T14:19:22.820Z,12.67
2022-12-22T14:20:22.798Z,12.60
2022-12-22T14:21:27.836Z,12.62
2022-12-22T14:22:22.746Z,12.60
2022-12-22T14:23:22.774Z,12.57
2022-12-22T14:24:22.720Z,12.65
2022-12-22T14:25:22.733Z,12.57
2022-12-22T14:26:22.712Z,12.60
2022-12-22T14:27:22.778Z,12.62
2022-12-22T14:28:22.670Z,12.57
2022-12-22T14:29:22.666Z,12.60
2022-12-22T14:30:22.660Z,12.62
2022-12-22T14:31:22.737Z,12.54
2022-12-22T14:32:28.694Z,12.57
2022-12-22T14:33:22.667Z,12.52
2022-12-22T14:34:22.614Z,12.53
2022-12-22T14:35:23.635Z,12.53
2022-12-22T14:36:22.603Z,12.56
2022-12-22T14:37:27.057Z,12.52
2022-12-22T14:38:23.642Z,12.46
2022-12-22T14:39:22.609Z,12.49
2022-12-22T14:40:22.541Z,12.59
2022-12-22T14:41:22.551Z,12.47
2022-12-22T14:42:22.532Z,12.49
2022-12-22T14:43:27.563Z,12.46
2022-12-22T14:44:22.535Z,12.45
2022-12-22T14:45:22.482Z,12.45
2022-12-22T14:46:22.571Z,12.45
2022-12-22T14:47:22.470Z,12.52
2022-12-22T14:48:22.471Z,12.42
2022-12-22T14:49:22.434Z,12.41
2022-12-22T14:50:22.420Z,12.41
2022-12-22T14:51:22.424Z,12.42
2022-12-22T14:52:22.397Z,12.41
2022-12-22T14:53:22.407Z,12.46
2022-12-22T14:54:27.403Z,12.41
2022-12-22T14:55:22.380Z,12.46
2022-12-22T14:56:22.369Z,12.47
2022-12-22T14:57:22.360Z,12.38
2022-12-22T14:58:22.336Z,12.41
2022-12-22T14:59:22.343Z,12.37
2022-12-22T15:00:22.308Z,12.27
2022-12-22T15:01:22.491Z,12.23
2022-12-22T15:02:22.531Z,12.21
2022-12-22T15:03:22.403Z,12.23
2022-12-22T15:04:23.301Z,12.10
2022-12-22T15:05:27.287Z,12.12
2022-12-22T15:06:22.289Z,12.14
2022-12-22T15:08:03.561Z,12.12
2022-12-22T15:08:23.219Z,11.99
2022-12-22T15:09:47.112Z,12.10
2022-12-22T15:10:23.194Z,12.05
2022-12-22T15:11:22.350Z,12.02
2022-12-22T15:12:23.181Z,11.99
2022-12-22T15:13:22.163Z,12.07
2022-12-22T15:14:22.209Z,11.98
2022-12-22T15:15:22.200Z,12.02
2022-12-22T15:16:28.012Z,12.07
2022-12-22T15:17:22.117Z,12.02
2022-12-22T15:18:22.106Z,11.99
2022-12-22T15:19:22.121Z,11.88
2022-12-22T15:20:22.202Z,11.91
2022-12-22T15:21:22.088Z,11.88
2022-12-22T15:22:22.069Z,11.96
2022-12-22T15:23:22.055Z,11.88
2022-12-22T15:24:22.060Z,11.91
2022-12-22T15:25:22.034Z,11.96
2022-12-22T15:26:22.042Z,11.96
2022-12-22T15:27:27.028Z,11.96
2022-12-22T15:28:22.001Z,11.91
2022-12-22T15:29:22.000Z,11.94
2022-12-22T15:30:21.971Z,11.88
2022-12-22T15:31:22.014Z,11.90
2022-12-22T15:32:21.951Z,11.90
2022-12-22T15:33:21.942Z,11.95
2022-12-22T15:34:21.949Z,11.85
2022-12-22T15:35:21.918Z,11.85
2022-12-22T15:36:21.941Z,11.83
2022-12-22T15:37:21.889Z,11.76
2022-12-22T15:38:26.906Z,11.69
2022-12-22T15:39:21.869Z,11.54
2022-12-22T15:40:21.891Z,11.67
2022-12-22T15:41:21.859Z,11.57
2022-12-22T15:42:21.911Z,11.58
2022-12-22T15:43:55.839Z,11.52
2022-12-22T15:44:22.828Z,11.51
2022-12-22T15:45:21.811Z,11.44
2022-12-22T15:46:21.906Z,11.47
2022-12-22T15:47:21.774Z,11.42
2022-12-22T15:48:21.764Z,11.40
2022-12-22T15:49:26.807Z,11.43
2022-12-22T15:50:21.746Z,11.39
2022-12-22T15:51:21.744Z,11.33
2022-12-22T15:52:21.889Z,11.28
2022-12-22T15:53:21.715Z,11.32
2022-12-22T15:54:21.696Z,11.28
2022-12-22T15:55:21.691Z,11.29
2022-12-22T15:56:21.701Z,11.24
2022-12-22T15:57:21.672Z,11.28
2022-12-22T15:58:21.657Z,11.29
2022-12-22T15:59:21.639Z,11.28
2022-12-22T16:00:26.664Z,11.35
2022-12-22T16:01:21.741Z,11.24
2022-12-22T16:02:21.848Z,11.18
2022-12-22T16:03:21.847Z,11.22
2022-12-22T16:04:21.588Z,11.32
2022-12-22T16:05:21.581Z,11.32
2022-12-22T16:06:21.588Z,11.25
2022-12-22T16:07:21.631Z,11.29
2022-12-22T16:08:21.594Z,11.24
2022-12-22T16:09:21.530Z,11.25
2022-12-22T16:10:21.517Z,11.19
2022-12-22T16:11:26.538Z,11.17
2022-12-22T16:12:21.516Z,11.21
2022-12-22T16:13:21.492Z,11.19
2022-12-22T16:14:21.494Z,11.28
2022-12-22T16:15:21.474Z,11.28
2022-12-22T16:16:21.642Z,11.14
2022-12-22T16:17:21.467Z,11.15
2022-12-22T16:18:21.460Z,11.14
2022-12-22T16:19:21.421Z,11.15
2022-12-22T16:20:21.434Z,11.15
2022-12-22T16:21:21.520Z,11.15
2022-12-22T16:22:26.406Z,11.06
2022-12-22T16:23:21.911Z,11.07
2022-12-22T16:24:21.399Z,11.03
2022-12-22T16:25:21.391Z,11.15
2022-12-22T16:26:21.368Z,11.07
2022-12-22T16:27:21.342Z,11.09
2022-12-22T16:28:21.316Z,11.17
2022-12-22T16:29:21.321Z,11.09
2022-12-22T16:30:21.293Z,11.15
2022-12-22T16:31:21.471Z,11.09
2022-12-22T16:32:21.354Z,11.03
2022-12-22T16:33:26.283Z,11.04
2022-12-22T16:34:21.268Z,11.02
2022-12-22T16:35:21.277Z,11.14
2022-12-22T16:36:21.273Z,11.11
2022-12-22T16:37:21.258Z,11.06
2022-12-22T16:38:21.218Z,10.99
2022-12-22T16:39:21.185Z,11.04
2022-12-22T16:40:21.217Z,11.07
2022-12-22T16:41:21.169Z,11.06
2022-12-22T16:43:51.034Z,11.09
2022-12-22T16:44:50.985Z,11.02
2022-12-22T16:45:29.963Z,10.99
2022-12-22T16:46:30.045Z,11.02
2022-12-22T16:47:29.966Z,10.97
2022-12-22T16:48:29.931Z,10.96
2022-12-22T16:49:29.947Z,10.96
2022-12-22T16:50:29.955Z,10.92
2022-12-22T16:51:29.903Z,10.96
2022-12-22T16:52:29.904Z,10.89
2022-12-22T16:53:29.874Z,10.91
2022-12-22T16:54:34.893Z,10.88
2022-12-22T16:55:29.886Z,10.84
2022-12-22T16:56:29.895Z,10.85
2022-12-22T16:57:29.851Z,10.79
2022-12-22T16:58:29.826Z,10.88
2022-12-22T16:59:29.861Z,10.84
2022-12-22T17:00:29.815Z,10.82
2022-12-22T17:01:30.023Z,10.81
2022-12-22T17:02:29.990Z,10.82
2022-12-22T17:03:30.987Z,10.85
2022-12-22T17:04:29.766Z,10.76
2022-12-22T17:05:40.298Z,10.70
2022-12-22T17:06:30.727Z,10.76
2022-12-22T17:07:29.767Z,10.73
2022-12-22T17:08:29.727Z,10.76
2022-12-22T17:09:29.703Z,10.76
2022-12-22T17:10:30.686Z,10.76
2022-12-22T17:11:29.715Z,10.76
2022-12-22T17:12:29.663Z,10.76
2022-12-22T17:13:29.675Z,10.76
2022-12-22T17:14:29.642Z,10.78
2022-12-22T17:15:30.739Z,10.81
2022-12-22T17:16:34.712Z,10.76
2022-12-22T17:17:35.544Z,10.84
2022-12-22T17:18:30.607Z,10.78
2022-12-22T17:19:29.589Z,10.76
2022-12-22T17:20:29.636Z,10.81
2022-12-22T17:21:29.598Z,10.73
2022-12-22T17:22:29.546Z,10.79
2022-12-22T17:23:29.605Z,10.71
2022-12-22T17:24:29.524Z,10.74
2022-12-22T17:25:29.526Z,10.73
2022-12-22T17:26:29.501Z,10.68
2022-12-22T17:27:34.534Z,10.68
2022-12-22T17:28:29.506Z,10.70
2022-12-22T17:29:29.469Z,10.68
2022-12-22T17:30:29.466Z,10.63
2022-12-22T17:31:29.545Z,10.70
2022-12-22T17:32:29.435Z,10.76
2022-12-22T17:33:29.448Z,10.67
2022-12-22T17:34:29.443Z,10.66
2022-12-22T17:35:29.400Z,10.67
2022-12-22T17:36:29.391Z,10.68
2022-12-22T17:37:29.406Z,10.61
2022-12-22T17:38:34.435Z,10.68
2022-12-22T17:39:29.357Z,10.68
2022-12-22T17:40:29.484Z,10.67
2022-12-22T17:41:29.346Z,10.70
2022-12-22T17:42:29.357Z,10.68
2022-12-22T17:43:29.370Z,10.78
2022-12-22T17:44:29.519Z,10.73
2022-12-22T17:45:29.286Z,10.67
2022-12-22T17:46:29.364Z,10.67
2022-12-22T17:47:34.839Z,10.76
2022-12-22T17:48:30.306Z,10.67
2022-12-22T17:49:34.271Z,10.70
2022-12-22T17:50:29.264Z,10.74
2022-12-22T17:51:30.401Z,10.66
2022-12-22T17:52:29.218Z,10.67
2022-12-22T17:53:29.226Z,10.67
2022-12-22T17:54:29.204Z,10.66